createdAt,value
2022-09-28T00:01:46.373Z,97550.09
2022-09-28T00:04:13.559Z,97555.06
2022-09-28T00:06:40.786Z,97550.63
2022-09-28T00:09:07.932Z,97554.25
2022-09-28T00:11:35.257Z,97548.31
2022-09-28T00:14:03.708Z,97548.81
2022-09-28T00:16:33.876Z,97556.06
2022-09-28T00:19:01.660Z,97550.38
2022-09-28T00:21:30.586Z,97556.59
2022-09-28T00:24:19.229Z,97555.81
2022-09-28T00:26:49.657Z,97555.56
2022-09-28T00:29:20.791Z,97555.06
2022-09-28T00:31:52.633Z,97536.69
2022-09-28T00:34:20.842Z,97540.56
2022-09-28T00:36:48.712Z,97542.13
2022-09-28T00:39:16.712Z,97543.44
2022-09-28T00:41:44.428Z,97546.06
2022-09-28T00:44:38.123Z,97534.91
2022-09-28T00:47:49.612Z,97539.28
2022-09-28T00:50:29.962Z,97534.66
2022-09-28T00:53:04.429Z,97533.91
2022-09-28T00:55:37.628Z,97537.00
2022-09-28T00:58:08.891Z,97538.56
2022-09-28T01:00:36.368Z,97540.13
2022-09-28T01:03:04.241Z,97547.38
2022-09-28T01:05:33.892Z,97545.03
2022-09-28T01:08:02.498Z,97549.19
2022-09-28T01:10:31.262Z,97536.00
2022-09-28T01:12:59.341Z,97534.19
2022-09-28T01:15:28.844Z,97535.47
2022-09-28T01:18:07.366Z,97532.09
2022-09-28T01:20:54.576Z,97544.28
2022-09-28T01:23:54.055Z,97542.72
2022-09-28T01:26:46.624Z,97542.72
2022-09-28T01:29:22.190Z,97538.31
2022-09-28T01:31:55.282Z,97538.84
2022-09-28T01:34:28.828Z,97544.53
2022-09-28T01:37:00.656Z,97542.22
2022-09-28T01:39:33.080Z,97543.25
2022-09-28T01:42:05.726Z,97548.94
2022-09-28T01:44:39.913Z,97548.41
2022-09-28T01:47:10.857Z,97546.88
2022-09-28T01:49:42.780Z,97550.75
2022-09-28T01:52:15.882Z,97551.53
2022-09-28T01:54:47.493Z,97553.09
2022-09-28T01:57:20.254Z,97557.22
2022-09-28T01:59:53.400Z,97551.03
2022-09-28T02:02:27.063Z,97560.34
2022-09-28T02:04:57.725Z,97557.47
2022-09-28T02:07:31.384Z,97560.84
2022-09-28T02:10:03.151Z,97552.03
2022-09-28T02:12:36.049Z,97551.50
2022-09-28T02:15:12.715Z,97551.25
2022-09-28T02:17:40.660Z,97555.16
2022-09-28T02:20:09.073Z,97558.50
2022-09-28T02:22:40.741Z,97553.59
2022-09-28T02:25:11.332Z,97557.22
2022-09-28T02:27:45.554Z,97546.09
2022-09-28T02:30:13.306Z,97551.50
2022-09-28T02:32:44.216Z,97550.47
2022-09-28T02:35:16.493Z,97547.38
2022-09-28T02:37:45.862Z,97556.69
2022-09-28T02:40:14.885Z,97557.19
2022-09-28T02:42:54.218Z,97554.59
2022-09-28T02:45:37.791Z,97565.72
2022-09-28T02:48:31.465Z,97567.00
2022-09-28T02:51:17.945Z,97570.09
2022-09-28T02:54:16.683Z,97564.94
2022-09-28T02:57:04.442Z,97573.47
2022-09-28T02:59:43.896Z,97573.72
2022-09-28T03:02:21.265Z,97571.91
2022-09-28T03:05:01.321Z,97572.94
2022-09-28T03:07:35.573Z,97571.06
2022-09-28T03:10:08.985Z,97574.44
2022-09-28T03:12:38.421Z,97574.94
2022-09-28T03:15:20.387Z,97580.88
2022-09-28T03:17:47.894Z,97579.31
2022-09-28T03:20:15.698Z,97579.06
2022-09-28T03:22:48.797Z,97569.47
2022-09-28T03:25:23.295Z,97573.59
2022-09-28T03:27:50.508Z,97583.13
2022-09-28T03:30:19.237Z,97582.84
2022-09-28T03:32:47.375Z,97588.00
2022-09-28T03:35:14.715Z,97584.09
2022-09-28T03:37:42.571Z,97585.09
2022-09-28T03:40:10.444Z,97587.66
2022-09-28T03:42:37.916Z,97586.84
2022-09-28T03:45:06.384Z,97594.56
2022-09-28T03:47:35.156Z,97600.22
2022-09-28T03:50:02.595Z,97589.63
2022-09-28T03:52:29.803Z,97583.66
2022-09-28T03:54:56.941Z,97575.66
2022-09-28T03:57:24.525Z,97576.44
2022-09-28T03:59:51.642Z,97569.47
2022-09-28T04:02:18.824Z,97581.34
2022-09-28T04:04:47.736Z,97579.00
2022-09-28T04:07:15.033Z,97583.66
2022-09-28T04:09:44.180Z,97589.06
2022-09-28T04:12:11.660Z,97584.16
2022-09-28T04:14:38.770Z,97584.66
2022-09-28T04:17:07.212Z,97585.47
2022-09-28T04:19:34.704Z,97583.66
2022-09-28T04:22:12.833Z,97586.75
2022-09-28T04:24:42.189Z,97597.09
2022-09-28T04:27:28.020Z,97590.91
2022-09-28T04:29:55.125Z,97588.34
2022-09-28T04:32:22.790Z,97595.81
2022-09-28T04:34:51.942Z,97600.22
2022-09-28T04:37:20.650Z,97603.59
2022-09-28T04:39:48.689Z,97607.28
2022-09-28T04:42:18.831Z,97605.78
2022-09-28T04:44:46.338Z,97604.56
2022-09-28T04:47:13.708Z,97618.81
2022-09-28T04:49:43.827Z,97620.66
2022-09-28T04:52:18.487Z,97620.69
2022-09-28T04:54:50.114Z,97629.53
2022-09-28T04:57:17.390Z,97632.19
2022-09-28T04:59:44.894Z,97633.81
2022-09-28T05:02:15.305Z,97632.00
2022-09-28T05:04:56.601Z,97623.94
2022-09-28T05:07:27.014Z,97624.09
2022-09-28T05:09:58.774Z,97623.19
2022-09-28T05:12:26.507Z,97635.00
2022-09-28T05:14:53.837Z,97633.81
2022-09-28T05:17:21.023Z,97637.25
2022-09-28T05:20:17.278Z,97627.28
2022-09-28T05:22:44.920Z,97627.75
2022-09-28T05:25:13.758Z,97628.00
2022-09-28T05:28:03.604Z,97636.47
2022-09-28T05:30:59.793Z,97637.44
2022-09-28T05:33:47.301Z,97645.69
2022-09-28T05:36:14.711Z,97643.94
2022-09-28T05:38:45.041Z,97645.88
2022-09-28T05:41:13.703Z,97651.56
2022-09-28T05:43:41.171Z,97649.72
2022-09-28T05:46:08.485Z,97656.28
2022-09-28T05:48:38.601Z,97661.44
2022-09-28T05:51:06.239Z,97666.59
2022-09-28T05:53:33.564Z,97666.59
2022-09-28T05:56:01.340Z,97669.59
2022-09-28T05:58:32.872Z,97663.34
2022-09-28T06:01:00.283Z,97671.78
2022-09-28T06:03:28.674Z,97665.03
2022-09-28T06:05:55.931Z,97666.47
2022-09-28T06:08:24.361Z,97662.06
2022-09-28T06:11:01.263Z,97670.94
2022-09-28T06:13:29.252Z,97673.81
2022-09-28T06:15:57.905Z,97673.72
2022-09-28T06:18:26.654Z,97686.28
2022-09-28T06:21:10.972Z,97675.09
2022-09-28T06:23:48.212Z,97674.28
2022-09-28T06:26:17.041Z,97677.06
2022-09-28T06:28:45.187Z,97674.63
2022-09-28T06:31:14.015Z,97670.28
2022-09-28T06:33:46.100Z,97670.44
2022-09-28T06:36:13.763Z,97673.09
2022-09-28T06:38:41.108Z,97670.72
2022-09-28T06:41:08.544Z,97663.78
2022-09-28T06:43:36.820Z,97662.19
2022-09-28T06:46:14.414Z,97658.84
2022-09-28T06:48:50.993Z,97655.16
2022-09-28T06:51:22.035Z,97647.28
2022-09-28T06:54:01.136Z,97657.50
2022-09-28T06:56:39.674Z,97652.56
2022-09-28T06:59:07.031Z,97653.34
2022-09-28T07:01:37.202Z,97649.16
2022-09-28T07:04:08.988Z,97644.78
2022-09-28T07:06:55.072Z,97652.31
2022-09-28T07:09:44.956Z,97646.84
2022-09-28T07:12:41.813Z,97651.84
2022-09-28T07:15:32.090Z,97652.75
2022-09-28T07:18:03.930Z,97652.13
2022-09-28T07:20:41.322Z,97655.00
2022-09-28T07:26:08.471Z,97655.38
2022-09-28T07:28:48.496Z,97658.00
2022-09-28T07:31:30.048Z,97655.19
2022-09-28T07:34:23.214Z,97651.59
2022-09-28T07:37:12.502Z,97655.22
2022-09-28T07:39:59.009Z,97653.13
2022-09-28T07:42:30.024Z,97653.72
2022-09-28T07:44:58.397Z,97661.53
2022-09-28T07:47:34.668Z,97658.16
2022-09-28T07:50:32.447Z,97664.00
2022-09-28T07:53:30.010Z,97671.41
2022-09-28T07:56:23.726Z,97673.25
2022-09-28T07:59:20.544Z,97671.88
2022-09-28T08:02:06.412Z,97669.97
2022-09-28T08:04:33.800Z,97672.28
2022-09-28T08:07:03.201Z,97674.16
2022-09-28T08:09:31.405Z,97671.56
2022-09-28T08:12:19.705Z,97677.06
2022-09-28T08:15:11.887Z,97672.22
2022-09-28T08:17:53.370Z,97667.16
2022-09-28T08:20:40.897Z,97674.38
2022-09-28T08:23:11.356Z,97668.19
2022-09-28T08:25:40.840Z,97678.19
2022-09-28T08:28:09.638Z,97663.19
2022-09-28T08:30:45.322Z,97674.22
2022-09-28T08:33:31.380Z,97665.38
2022-09-28T08:36:17.617Z,97663.84
2022-09-28T08:39:05.374Z,97671.81
2022-09-28T08:41:40.584Z,97665.34
2022-09-28T08:44:25.140Z,97662.81
2022-09-28T08:47:36.439Z,97662.66
2022-09-28T08:50:25.814Z,97660.75
2022-09-28T08:53:31.474Z,97662.56
2022-09-28T08:56:29.432Z,97663.03
2022-09-28T08:59:00.331Z,97655.44
2022-09-28T09:01:35.465Z,97650.47
2022-09-28T09:04:06.680Z,97663.97
2022-09-28T09:06:57.997Z,97651.50
2022-09-28T09:09:48.801Z,97652.84
2022-09-28T09:12:26.377Z,97649.34
2022-09-28T09:15:17.483Z,97648.78
2022-09-28T09:18:04.809Z,97645.44
2022-09-28T09:20:48.441Z,97651.59
2022-09-28T09:23:37.012Z,97649.09
2022-09-28T09:26:11.106Z,97649.69
2022-09-28T09:29:06.164Z,97660.50
2022-09-28T09:31:58.199Z,97651.03
2022-09-28T09:34:41.716Z,97652.16
2022-09-28T09:37:46.264Z,97648.44
2022-09-28T09:40:53.712Z,97647.38
2022-09-28T09:44:05.740Z,97648.78
2022-09-28T09:47:09.681Z,97650.75
2022-09-28T09:49:55.656Z,97639.75
2022-09-28T09:52:27.764Z,97635.13
2022-09-28T09:54:58.227Z,97650.72
2022-09-28T09:57:42.245Z,97639.47
2022-09-28T10:00:32.036Z,97647.97
2022-09-28T10:03:19.716Z,97643.56
2022-09-28T10:05:54.653Z,97635.88
2022-09-28T10:08:24.051Z,97648.50
2022-09-28T10:10:55.255Z,97638.22
2022-09-28T10:13:24.219Z,97633.66
2022-09-28T10:15:56.371Z,97636.78
2022-09-28T10:18:35.925Z,97637.13
2022-09-28T10:21:23.745Z,97627.31
2022-09-28T10:23:58.441Z,97633.91
2022-09-28T10:26:33.673Z,97631.53
2022-09-28T10:29:04.991Z,97630.81
2022-09-28T10:31:40.290Z,97639.44
2022-09-28T10:34:17.172Z,97630.81
2022-09-28T10:36:52.257Z,97633.31
2022-09-28T10:39:25.934Z,97628.63
2022-09-28T10:41:54.324Z,97641.97
2022-09-28T10:44:26.172Z,97635.25
2022-09-28T10:47:20.566Z,97629.59
2022-09-28T10:49:50.587Z,97638.75
2022-09-28T10:52:32.169Z,97627.81
2022-09-28T10:54:59.904Z,97644.53
2022-09-28T10:57:29.168Z,97642.03
2022-09-28T11:00:01.728Z,97637.94
2022-09-28T11:02:38.629Z,97636.19
2022-09-28T11:05:21.853Z,97633.22
2022-09-28T11:07:52.009Z,97626.97
2022-09-28T11:10:26.653Z,97627.28
2022-09-28T11:12:58.697Z,97636.63
2022-09-28T11:15:29.795Z,97630.25
2022-09-28T11:18:18.809Z,97627.41
2022-09-28T11:20:46.343Z,97624.03
2022-09-28T11:23:20.912Z,97618.19
2022-09-28T11:26:00.101Z,97621.00
2022-09-28T11:28:32.746Z,97606.88
2022-09-28T11:31:04.041Z,97608.50
2022-09-28T11:34:02.936Z,97606.78
2022-09-28T11:37:01.914Z,97619.06
2022-09-28T11:39:39.468Z,97609.97
2022-09-28T11:42:17.604Z,97600.56
2022-09-28T11:44:48.025Z,97609.13
2022-09-28T11:47:49.039Z,97606.69
2022-09-28T11:50:27.607Z,97603.69
2022-09-28T11:53:00.381Z,97609.84
2022-09-28T11:55:33.743Z,97606.88
2022-09-28T11:58:10.344Z,97600.94
2022-09-28T12:00:44.920Z,97604.22
2022-09-28T12:03:16.854Z,97595.59
2022-09-28T12:05:52.200Z,97597.34
2022-09-28T12:08:25.613Z,97594.00
2022-09-28T12:11:09.868Z,97588.34
2022-09-28T12:13:58.319Z,97589.00
2022-09-28T12:17:01.035Z,97583.72
2022-09-28T12:19:21.899Z,97587.31
2022-09-28T12:21:52.876Z,97577.53
2022-09-28T12:24:24.870Z,97580.25
2022-09-28T12:26:56.608Z,97580.28
2022-09-28T12:29:29.391Z,97586.03
2022-09-28T12:32:02.684Z,97578.00
2022-09-28T12:34:29.879Z,97572.13
2022-09-28T12:37:36.597Z,97565.19
2022-09-28T12:40:27.048Z,97572.84
2022-09-28T12:43:06.343Z,97565.25
2022-09-28T12:46:10.527Z,97576.72
2022-09-28T12:52:14.035Z,97568.97
2022-09-28T12:55:05.270Z,97564.06
2022-09-28T12:57:42.713Z,97564.06
2022-09-28T13:00:13.321Z,97564.66
2022-09-28T13:03:07.111Z,97558.94
2022-09-28T13:05:56.750Z,97569.25
2022-09-28T13:08:35.573Z,97561.94
2022-09-28T13:11:11.529Z,97565.78
2022-09-28T13:13:48.008Z,97558.00
2022-09-28T13:16:21.505Z,97570.97
2022-09-28T13:18:54.066Z,97563.06
2022-09-28T13:21:28.509Z,97570.66
2022-09-28T13:24:14.468Z,97570.59
2022-09-28T13:26:48.132Z,97568.31
2022-09-28T13:29:18.822Z,97563.28
2022-09-28T13:31:48.983Z,97561.44
2022-09-28T13:34:20.660Z,97561.53
2022-09-28T13:37:10.062Z,97569.41
2022-09-28T13:39:48.825Z,97559.91
2022-09-28T13:42:53.238Z,97554.50
2022-09-28T13:45:50.591Z,97554.50
2022-09-28T13:48:21.750Z,97548.78
2022-09-28T13:51:24.782Z,97558.53
2022-09-28T13:54:06.947Z,97558.81
2022-09-28T13:56:38.173Z,97558.31
2022-09-28T13:59:19.515Z,97564.63
2022-09-28T14:01:56.043Z,97563.88
2022-09-28T14:04:24.955Z,97565.22
2022-09-28T14:06:57.092Z,97569.59
2022-09-28T14:09:41.622Z,97560.84
2022-09-28T14:12:43.256Z,97570.72
2022-09-28T14:15:43.960Z,97564.44
2022-09-28T14:18:20.011Z,97564.97
2022-09-28T14:20:57.015Z,97565.59
2022-09-28T14:23:59.106Z,97557.88
2022-09-28T14:26:48.147Z,97572.94
2022-09-28T14:29:29.821Z,97570.16
2022-09-28T14:32:05.125Z,97573.13
2022-09-28T14:34:36.252Z,97566.38
2022-09-28T14:37:24.751Z,97574.09
2022-09-28T14:40:10.983Z,97572.56
2022-09-28T14:42:40.411Z,97581.34
2022-09-28T14:45:33.766Z,97593.50
2022-09-28T14:48:13.967Z,97594.34
2022-09-28T14:50:41.659Z,97594.34
2022-09-28T14:53:14.826Z,97600.34
2022-09-28T14:55:50.338Z,97600.13
2022-09-28T14:58:23.036Z,97598.66
2022-09-28T15:01:00.084Z,97598.03
2022-09-28T15:03:32.784Z,97598.09
2022-09-28T15:06:01.647Z,97600.34
2022-09-28T15:08:39.164Z,97602.31
2022-09-28T15:11:11.231Z,97595.75
2022-09-28T15:13:40.797Z,97601.25
2022-09-28T15:16:12.603Z,97593.81
2022-09-28T15:19:04.295Z,97595.47
2022-09-28T15:21:33.854Z,97597.81
2022-09-28T15:24:01.227Z,97609.47
2022-09-28T15:26:31.022Z,97603.53
2022-09-28T15:28:58.942Z,97611.44
2022-09-28T15:31:28.215Z,97612.06
2022-09-28T15:34:15.533Z,97604.94
2022-09-28T15:36:46.460Z,97610.06
2022-09-28T15:39:16.242Z,97621.66
2022-09-28T15:41:46.138Z,97614.38
2022-09-28T15:44:32.339Z,97612.34
2022-09-28T15:47:09.719Z,97619.31
2022-09-28T15:49:41.726Z,97618.66
2022-09-28T15:52:23.583Z,97623.28
2022-09-28T15:54:51.017Z,97626.91
2022-09-28T15:57:37.360Z,97624.09
2022-09-28T16:00:07.265Z,97614.94
2022-09-28T16:03:00.332Z,97628.56
2022-09-28T16:05:37.908Z,97616.91
2022-09-28T16:08:13.060Z,97625.16
2022-09-28T16:10:54.302Z,97626.13
2022-09-28T16:13:24.420Z,97618.56
2022-09-28T16:15:58.241Z,97628.47
2022-09-28T16:18:33.985Z,97642.69
2022-09-28T16:21:29.370Z,97634.84
2022-09-28T16:23:57.710Z,97631.91
2022-09-28T16:26:32.169Z,97625.28
2022-09-28T16:29:00.227Z,97623.91
2022-09-28T16:31:33.248Z,97628.38
2022-09-28T16:34:11.579Z,97624.03
2022-09-28T16:36:45.887Z,97636.06
2022-09-28T16:39:13.234Z,97634.06
2022-09-28T16:41:44.300Z,97640.50
2022-09-28T16:44:17.362Z,97636.63
2022-09-28T16:46:45.539Z,97634.75
2022-09-28T16:49:19.052Z,97642.38
2022-09-28T16:51:48.273Z,97659.44
2022-09-28T16:54:36.215Z,97665.72
2022-09-28T16:57:06.276Z,97675.38
2022-09-28T16:59:33.996Z,97674.72
2022-09-28T17:02:01.223Z,97684.53
2022-09-28T17:04:28.466Z,97683.91
2022-09-28T17:06:58.404Z,97683.56
2022-09-28T17:09:25.719Z,97683.50
2022-09-28T17:11:56.730Z,97678.69
2022-09-28T17:14:24.932Z,97682.78
2022-09-28T17:17:08.190Z,97677.78
2022-09-28T17:19:37.765Z,97682.47
2022-09-28T17:22:08.145Z,97688.09
2022-09-28T17:24:35.478Z,97678.03
2022-09-28T17:27:03.410Z,97688.91
2022-09-28T17:29:30.619Z,97692.22
2022-09-28T17:31:57.717Z,97691.84
2022-09-28T17:34:25.396Z,97697.47
2022-09-28T17:36:52.837Z,97696.81
2022-09-28T17:39:21.523Z,97699.00
2022-09-28T17:41:51.711Z,97689.34
2022-09-28T17:44:20.531Z,97690.63
2022-09-28T17:46:49.751Z,97704.06
2022-09-28T17:49:18.000Z,97703.69
2022-09-28T17:51:45.623Z,97700.38
2022-09-28T17:54:20.846Z,97705.41
2022-09-28T17:56:49.687Z,97701.06
2022-09-28T17:59:19.046Z,97704.81
2022-09-28T18:01:46.329Z,97703.38
2022-09-28T18:04:33.284Z,97698.81
2022-09-28T18:07:02.183Z,97699.75
2022-09-28T18:09:29.334Z,97708.41
2022-09-28T18:12:01.044Z,97703.03
2022-09-28T18:14:28.576Z,97704.16
2022-09-28T18:16:55.795Z,97710.03
2022-09-28T18:19:23.103Z,97709.41
2022-09-28T18:21:50.443Z,97719.94
2022-09-28T18:24:17.794Z,97721.63
2022-09-28T18:26:45.742Z,97726.41
2022-09-28T18:29:14.235Z,97717.13
2022-09-28T18:31:41.471Z,97716.94
2022-09-28T18:34:08.693Z,97707.84
2022-09-28T18:36:35.937Z,97719.31
2022-09-28T18:39:03.546Z,97709.47
2022-09-28T18:41:30.845Z,97717.06
2022-09-28T18:44:01.150Z,97723.34
2022-09-28T18:46:36.467Z,97727.00
2022-09-28T18:49:04.656Z,97720.56
2022-09-28T18:51:31.781Z,97723.50
2022-09-28T18:54:00.174Z,97723.31
2022-09-28T18:56:27.559Z,97726.41
2022-09-28T18:58:54.939Z,97726.41
2022-09-28T19:01:30.878Z,97723.03
2022-09-28T19:04:02.733Z,97712.91
2022-09-28T19:06:31.903Z,97722.81
2022-09-28T19:08:59.573Z,97717.09
2022-09-28T19:11:28.635Z,97731.16
2022-09-28T19:13:56.186Z,97739.53
2022-09-28T19:16:25.805Z,97732.88
2022-09-28T19:18:53.716Z,97742.78
2022-09-28T19:21:23.530Z,97744.38
2022-09-28T19:23:52.347Z,97743.72
2022-09-28T19:26:23.577Z,97752.94
2022-09-28T19:28:50.951Z,97752.94
2022-09-28T19:31:18.464Z,97743.81
2022-09-28T19:33:46.668Z,97759.13
2022-09-28T19:36:17.254Z,97766.97
2022-09-28T19:38:46.483Z,97762.59
2022-09-28T19:41:39.148Z,97757.13
2022-09-28T19:44:13.135Z,97762.06
2022-09-28T19:46:40.667Z,97761.78
2022-09-28T19:49:09.682Z,97759.72
2022-09-28T19:51:46.927Z,97761.84
2022-09-28T19:54:36.283Z,97765.78
2022-09-28T19:57:07.851Z,97765.78
2022-09-28T19:59:35.862Z,97758.25
2022-09-28T20:02:03.329Z,97764.22
2022-09-28T20:04:30.579Z,97763.94
2022-09-28T20:06:58.366Z,97767.31
2022-09-28T20:09:26.955Z,97762.13
2022-09-28T20:11:54.425Z,97764.72
2022-09-28T20:14:24.454Z,97767.31
2022-09-28T20:16:53.367Z,97768.13
2022-09-28T20:19:21.925Z,97763.94
2022-09-28T20:21:51.907Z,97771.53
2022-09-28T20:24:19.257Z,97770.25
2022-09-28T20:26:49.698Z,97769.75
2022-09-28T20:29:17.535Z,97772.13
2022-09-28T20:31:45.714Z,97770.31
2022-09-28T20:34:13.140Z,97768.22
2022-09-28T20:36:42.427Z,97768.97
2022-09-28T20:39:11.786Z,97764.03
2022-09-28T20:41:39.024Z,97774.19
2022-09-28T20:44:08.123Z,97773.41
2022-09-28T20:46:35.792Z,97780.44
2022-09-28T20:49:03.425Z,97782.25
2022-09-28T20:51:30.830Z,97792.66
2022-09-28T20:53:58.952Z,97787.53
2022-09-28T20:56:27.600Z,97786.75
2022-09-28T20:58:55.811Z,97793.78
2022-09-28T21:01:26.442Z,97791.19
2022-09-28T21:03:55.607Z,97786.75
2022-09-28T21:06:24.769Z,97783.41
2022-09-28T21:08:52.326Z,97780.03
2022-09-28T21:11:22.698Z,97779.28
2022-09-28T21:13:53.127Z,97777.16
2022-09-28T21:16:20.798Z,97780.81
2022-09-28T21:18:49.534Z,97771.47
2022-09-28T21:21:19.742Z,97786.81
2022-09-28T21:23:47.585Z,97787.31
2022-09-28T21:26:19.006Z,97791.72
2022-09-28T21:28:46.831Z,97797.22
2022-09-28T21:31:14.606Z,97785.59
2022-09-28T21:33:41.881Z,97787.94
2022-09-28T21:36:10.532Z,97787.41
2022-09-28T21:38:38.384Z,97780.41
2022-09-28T21:41:05.727Z,97776.47
2022-09-28T21:43:33.206Z,97772.03
2022-09-28T21:46:00.612Z,97766.34
2022-09-28T21:48:29.376Z,97770.75
2022-09-28T21:50:57.006Z,97780.13
2022-09-28T21:53:29.092Z,97769.44
2022-09-28T21:55:59.253Z,97772.31
2022-09-28T21:58:31.144Z,97771.53
2022-09-28T22:01:01.933Z,97763.72
2022-09-28T22:03:30.273Z,97759.06
2022-09-28T22:05:57.726Z,97755.41
2022-09-28T22:08:26.829Z,97762.47
2022-09-28T22:11:00.924Z,97763.50
2022-09-28T22:13:28.426Z,97759.63
2022-09-28T22:15:57.797Z,97763.81
2022-09-28T22:18:25.791Z,97750.09
2022-09-28T22:20:59.348Z,97759.22
2022-09-28T22:23:28.347Z,97758.72
2022-09-28T22:26:00.533Z,97764.72
2022-09-28T22:28:27.875Z,97762.41
2022-09-28T22:30:55.504Z,97760.91
2022-09-28T22:33:22.823Z,97756.00
2022-09-28T22:35:51.327Z,97757.28
2022-09-28T22:38:18.702Z,97754.75
2022-09-28T22:40:51.250Z,97760.81
2022-09-28T22:43:19.010Z,97756.16
2022-09-28T22:45:46.498Z,97746.03
2022-09-28T22:48:13.966Z,97750.16
2022-09-28T22:50:48.621Z,97752.53
2022-09-28T22:53:16.086Z,97747.09
2022-09-28T22:55:43.816Z,97749.22
2022-09-28T22:58:13.594Z,97741.97
2022-09-28T23:00:40.818Z,97740.38
2022-09-28T23:03:08.067Z,97740.16
2022-09-28T23:05:35.301Z,97732.63
2022-09-28T23:08:03.267Z,97729.53
2022-09-28T23:10:30.847Z,97732.13
2022-09-28T23:12:58.463Z,97743.09
2022-09-28T23:15:28.639Z,97736.81
2022-09-28T23:17:56.028Z,97734.22
2022-09-28T23:20:23.811Z,97735.53
2022-09-28T23:22:51.218Z,97730.63
2022-09-28T23:25:19.298Z,97732.22
2022-09-28T23:27:47.035Z,97741.53
2022-09-28T23:30:15.564Z,97733.53
2022-09-28T23:32:44.543Z,97732.00
2022-09-28T23:35:12.422Z,97736.41
2022-09-28T23:37:39.615Z,97726.06
2022-09-28T23:40:07.329Z,97728.16
2022-09-28T23:42:35.495Z,97725.88
2022-09-28T23:45:02.966Z,97718.13
2022-09-28T23:47:30.366Z,97717.88
2022-09-28T23:49:58.924Z,97715.31
2022-09-28T23:52:26.149Z,97722.56
2022-09-28T23:54:53.248Z,97721.03
2022-09-28T23:57:20.719Z,97713.50
2022-09-28T23:59:47.896Z,97724.44
